createdAt,value
2022-11-15T00:00:55.796Z,8.50
2022-11-15T00:03:25.261Z,7.90
2022-11-15T00:05:52.262Z,8.10
2022-11-15T00:08:19.454Z,8.30
2022-11-15T00:11:02.640Z,8.30
2022-11-15T00:13:30.640Z,7.47
2022-11-15T00:15:59.416Z,7.60
2022-11-15T00:18:26.926Z,7.57
2022-11-15T00:20:53.799Z,7.40
2022-11-15T00:23:22.213Z,6.63
2022-11-15T00:25:57.047Z,6.43
2022-11-15T00:28:24.052Z,6.63
2022-11-15T00:30:50.967Z,6.83
2022-11-15T00:33:18.270Z,7.70
2022-11-15T00:35:45.472Z,7.30
2022-11-15T00:38:12.472Z,7.00
2022-11-15T00:40:39.373Z,7.63
2022-11-15T00:43:06.393Z,7.93
2022-11-15T00:45:33.398Z,7.97
2022-11-15T00:48:00.850Z,7.97
2022-11-15T00:50:28.647Z,7.43
2022-11-15T00:52:57.133Z,8.27
2022-11-15T00:55:29.834Z,7.87
2022-11-15T00:57:56.781Z,7.23
2022-11-15T01:00:24.184Z,7.77
2022-11-15T01:02:51.138Z,7.93
2022-11-15T01:05:18.537Z,7.87
2022-11-15T01:07:45.894Z,8.07
2022-11-15T01:10:13.116Z,8.20
2022-11-15T01:12:40.023Z,7.73
2022-11-15T01:15:07.446Z,8.10
2022-11-15T01:17:34.359Z,8.63
2022-11-15T01:20:01.321Z,7.90
2022-11-15T01:22:28.249Z,7.73
2022-11-15T01:24:55.323Z,9.23
2022-11-15T01:27:22.305Z,8.50
2022-11-15T01:29:49.429Z,8.47
2022-11-15T01:32:16.406Z,8.60
2022-11-15T01:34:43.504Z,8.70
2022-11-15T01:37:10.432Z,8.17
2022-11-15T01:39:37.528Z,8.30
2022-11-15T01:42:04.878Z,8.63
2022-11-15T01:44:44.841Z,8.23
2022-11-15T01:47:24.429Z,8.13
2022-11-15T01:49:57.619Z,8.23
2022-11-15T01:52:27.849Z,8.00
2022-11-15T01:55:02.297Z,7.93
2022-11-15T01:57:29.644Z,9.33
2022-11-15T01:59:58.326Z,8.60
2022-11-15T02:02:25.354Z,8.70
2022-11-15T02:04:52.300Z,9.27
2022-11-15T02:07:21.227Z,9.40
2022-11-15T02:09:48.886Z,9.20
2022-11-15T02:12:19.964Z,8.70
2022-11-15T02:14:52.364Z,7.87
2022-11-15T02:17:28.211Z,8.27
2022-11-15T02:20:07.083Z,7.93
2022-11-15T02:23:18.650Z,8.03
2022-11-15T02:26:17.462Z,7.53
2022-11-15T02:29:02.019Z,7.47
2022-11-15T02:31:40.958Z,7.97
2022-11-15T02:34:37.382Z,7.70
2022-11-15T02:37:15.388Z,7.40
2022-11-15T02:39:51.194Z,7.90
2022-11-15T02:42:49.702Z,7.50
2022-11-15T02:45:25.964Z,6.70
2022-11-15T02:47:56.121Z,7.77
2022-11-15T02:50:27.072Z,7.33
2022-11-15T02:52:54.253Z,7.70
2022-11-15T02:55:46.398Z,8.10
2022-11-15T02:58:42.303Z,7.43
2022-11-15T03:01:18.155Z,6.83
2022-11-15T03:03:58.733Z,7.70
2022-11-15T03:06:39.859Z,7.23
2022-11-15T03:09:15.441Z,7.10
2022-11-15T03:11:49.557Z,6.20
2022-11-15T03:14:31.624Z,7.80
2022-11-15T03:17:03.124Z,6.50
2022-11-15T03:19:50.953Z,7.37
2022-11-15T03:22:23.953Z,6.63
2022-11-15T03:24:55.289Z,6.37
2022-11-15T03:27:27.200Z,6.40
2022-11-15T03:30:01.881Z,5.40
2022-11-15T03:32:35.462Z,5.50
2022-11-15T03:35:13.405Z,6.23
2022-11-15T03:37:53.593Z,5.83
2022-11-15T03:40:26.564Z,5.97
2022-11-15T03:43:06.604Z,5.97
2022-11-15T03:45:41.280Z,5.57
2022-11-15T03:48:15.940Z,6.03
2022-11-15T03:50:44.509Z,6.27
2022-11-15T03:53:11.699Z,5.63
2022-11-15T03:55:38.686Z,6.63
2022-11-15T03:58:05.796Z,6.17
2022-11-15T04:00:33.092Z,6.63
2022-11-15T04:03:00.019Z,6.73
2022-11-15T04:05:27.091Z,6.20
2022-11-15T04:07:53.987Z,6.70
2022-11-15T04:10:21.360Z,6.27
2022-11-15T04:12:48.742Z,7.03
2022-11-15T04:15:18.541Z,6.87
2022-11-15T04:17:50.883Z,6.40
2022-11-15T04:20:36.319Z,6.60
2022-11-15T04:23:25.574Z,6.63
2022-11-15T04:25:54.362Z,9.57
2022-11-15T04:28:21.766Z,6.47
2022-11-15T04:30:48.640Z,7.07
2022-11-15T04:33:15.917Z,6.40
2022-11-15T04:35:43.782Z,7.40
2022-11-15T04:38:12.026Z,7.07
2022-11-15T04:40:39.358Z,7.10
2022-11-15T04:43:06.391Z,6.43
2022-11-15T04:45:33.290Z,6.83
2022-11-15T04:48:00.240Z,6.97
2022-11-15T04:50:27.131Z,7.20
2022-11-15T04:52:55.364Z,7.17
2022-11-15T04:55:22.312Z,7.67
2022-11-15T04:57:57.911Z,6.73
2022-11-15T05:00:25.005Z,6.43
2022-11-15T05:03:10.887Z,6.90
2022-11-15T05:05:37.942Z,7.77
2022-11-15T05:08:05.443Z,8.13
2022-11-15T05:10:32.656Z,7.83
2022-11-15T05:12:59.596Z,7.73
2022-11-15T05:15:26.621Z,7.77
2022-11-15T05:17:59.460Z,7.13
2022-11-15T05:20:26.581Z,6.77
2022-11-15T05:22:56.403Z,6.83
2022-11-15T05:25:23.987Z,6.87
2022-11-15T05:27:50.998Z,7.33
2022-11-15T05:30:18.384Z,9.70
2022-11-15T05:32:46.031Z,8.37
2022-11-15T05:35:32.351Z,6.17
2022-11-15T05:37:59.450Z,9.17
2022-11-15T05:40:27.343Z,7.50
2022-11-15T05:42:54.647Z,12.37
2022-11-15T05:45:26.682Z,7.07
2022-11-15T05:47:58.012Z,8.70
2022-11-15T05:50:25.235Z,8.07
2022-11-15T05:52:52.670Z,8.97
2022-11-15T05:55:19.800Z,7.70
2022-11-15T05:57:46.728Z,9.20
2022-11-15T06:00:14.210Z,9.97
2022-11-15T06:02:41.189Z,8.40
2022-11-15T06:05:08.192Z,8.97
2022-11-15T06:07:35.271Z,7.70
2022-11-15T06:10:02.392Z,7.07
2022-11-15T06:12:29.422Z,7.43
2022-11-15T06:14:56.760Z,8.23
2022-11-15T06:17:23.857Z,7.30
2022-11-15T06:19:50.787Z,9.27
2022-11-15T06:22:27.161Z,8.87
2022-11-15T06:24:54.372Z,8.60
2022-11-15T06:27:21.266Z,10.20
2022-11-15T06:29:48.263Z,8.10
2022-11-15T06:32:15.639Z,8.77
2022-11-15T06:34:42.565Z,8.53
2022-11-15T06:37:09.584Z,8.67
2022-11-15T06:39:36.555Z,7.53
2022-11-15T06:42:03.605Z,7.73
2022-11-15T06:44:30.550Z,8.03
2022-11-15T06:46:58.009Z,8.93
2022-11-15T06:49:24.942Z,8.23
2022-11-15T06:51:51.899Z,8.93
2022-11-15T06:54:18.845Z,9.83
2022-11-15T06:56:45.751Z,9.63
2022-11-15T06:59:12.737Z,9.70
2022-11-15T07:01:39.911Z,10.17
2022-11-15T07:04:06.981Z,9.93
2022-11-15T07:06:33.895Z,9.83
2022-11-15T07:09:00.833Z,10.57
2022-11-15T07:11:27.811Z,9.40
2022-11-15T07:13:54.727Z,10.20
2022-11-15T07:16:21.711Z,10.77
2022-11-15T07:18:48.617Z,10.37
2022-11-15T07:21:15.603Z,11.07
2022-11-15T07:23:42.729Z,8.27
2022-11-15T07:26:10.108Z,8.60
2022-11-15T07:28:37.657Z,8.93
2022-11-15T07:31:09.266Z,8.57
2022-11-15T07:33:37.037Z,8.53
2022-11-15T07:36:06.536Z,7.90
2022-11-15T07:38:40.954Z,8.33
2022-11-15T07:41:08.294Z,8.50
2022-11-15T07:43:35.429Z,9.40
2022-11-15T07:46:10.608Z,8.70
2022-11-15T07:48:44.452Z,8.80
2022-11-15T07:51:16.101Z,8.13
2022-11-15T07:53:43.994Z,8.73
2022-11-15T07:56:11.607Z,8.87
2022-11-15T07:58:38.564Z,9.57
2022-11-15T08:01:10.991Z,8.90
2022-11-15T08:03:38.843Z,7.33
2022-11-15T08:06:06.187Z,7.50
2022-11-15T08:08:33.254Z,6.93
2022-11-15T08:11:00.534Z,6.57
2022-11-15T08:13:27.888Z,7.00
2022-11-15T08:16:02.733Z,6.30
2022-11-15T08:18:29.853Z,5.63
2022-11-15T08:21:00.871Z,6.03
2022-11-15T08:23:28.845Z,6.17
2022-11-15T08:26:02.085Z,6.67
2022-11-15T08:28:29.063Z,6.30
2022-11-15T08:30:56.238Z,5.43
2022-11-15T08:33:23.196Z,5.87
2022-11-15T08:35:50.153Z,6.03
2022-11-15T08:38:17.203Z,5.63
2022-11-15T08:40:44.096Z,5.60
2022-11-15T08:43:11.035Z,5.90
2022-11-15T08:45:37.950Z,18.33
2022-11-15T08:48:05.406Z,6.10
2022-11-15T08:50:32.738Z,5.72
2022-11-15T08:53:09.579Z,8.13
2022-11-15T08:55:40.185Z,6.03
2022-11-15T08:58:07.546Z,5.00
2022-11-15T09:00:34.956Z,5.60
2022-11-15T09:03:05.747Z,5.35
2022-11-15T09:05:32.949Z,5.30
2022-11-15T09:07:59.897Z,5.10
2022-11-15T09:10:26.794Z,4.80
2022-11-15T09:12:53.710Z,3.95
2022-11-15T09:15:20.922Z,4.45
2022-11-15T09:17:47.851Z,4.80
2022-11-15T09:20:14.939Z,4.75
2022-11-15T09:22:41.886Z,4.75
2022-11-15T09:25:11.151Z,4.25
2022-11-15T09:27:38.401Z,4.45
2022-11-15T09:30:06.147Z,5.68
2022-11-15T09:32:37.962Z,4.60
2022-11-15T09:35:06.625Z,4.75
2022-11-15T09:37:34.016Z,5.07
2022-11-15T09:40:01.011Z,4.43
2022-11-15T09:42:49.861Z,4.28
2022-11-15T09:45:39.444Z,4.65
2022-11-15T09:48:21.438Z,4.10
2022-11-15T09:50:51.038Z,4.50
2022-11-15T09:53:57.548Z,4.10
2022-11-15T09:56:20.208Z,4.28
2022-11-15T09:59:23.637Z,3.38
2022-11-15T10:02:09.497Z,3.45
2022-11-15T10:04:39.016Z,4.22
2022-11-15T10:07:22.316Z,3.50
2022-11-15T10:09:52.064Z,3.78
2022-11-15T10:12:19.400Z,3.55
2022-11-15T10:14:54.198Z,3.42
2022-11-15T10:17:59.003Z,3.47
2022-11-15T10:20:29.280Z,4.00
2022-11-15T10:23:00.739Z,3.63
2022-11-15T10:25:33.195Z,4.15
2022-11-15T10:28:11.099Z,3.47
2022-11-15T10:30:40.175Z,3.85
2022-11-15T10:33:35.607Z,3.60
2022-11-15T10:36:14.738Z,3.67
2022-11-15T10:38:50.498Z,3.80
2022-11-15T10:41:20.840Z,3.70
2022-11-15T10:44:02.908Z,4.30
2022-11-15T10:46:46.099Z,5.10
2022-11-15T10:49:26.627Z,3.63
2022-11-15T10:51:55.402Z,4.88
2022-11-15T10:54:31.787Z,4.32
2022-11-15T10:57:01.719Z,3.38
2022-11-15T10:59:38.638Z,3.63
2022-11-15T11:02:56.773Z,3.17
2022-11-15T11:05:36.588Z,3.38
2022-11-15T11:08:17.229Z,3.20
2022-11-15T11:11:04.240Z,2.92
2022-11-15T11:13:34.270Z,3.10
2022-11-15T11:16:14.860Z,3.20
2022-11-15T11:19:09.296Z,2.67
2022-11-15T11:22:15.510Z,3.53
2022-11-15T11:25:19.875Z,3.72
2022-11-15T11:28:08.505Z,4.32
2022-11-15T11:30:53.335Z,3.80
2022-11-15T11:33:29.257Z,4.07
2022-11-15T11:36:14.494Z,4.35
2022-11-15T11:39:01.850Z,3.85
2022-11-15T11:41:51.282Z,5.97
2022-11-15T11:44:23.730Z,3.13
2022-11-15T11:47:04.906Z,3.75
2022-11-15T11:50:05.063Z,3.00
2022-11-15T11:52:39.529Z,6.03
2022-11-15T11:55:18.081Z,3.58
2022-11-15T11:57:58.433Z,9.43
2022-11-15T12:00:32.271Z,8.70
2022-11-15T12:03:23.408Z,18.02
2022-11-15T12:05:57.678Z,4.40
2022-11-15T12:08:33.870Z,3.15
2022-11-15T12:11:29.094Z,3.50
2022-11-15T12:14:04.794Z,3.83
2022-11-15T12:16:33.784Z,3.85
2022-11-15T12:19:03.287Z,3.80
2022-11-15T12:22:21.995Z,3.50
2022-11-15T12:24:55.065Z,3.83
2022-11-15T12:27:39.469Z,4.00
2022-11-15T12:30:18.357Z,3.67
2022-11-15T12:32:58.116Z,4.03
2022-11-15T12:35:31.123Z,4.10
2022-11-15T12:37:58.652Z,4.40
2022-11-15T12:40:28.442Z,5.43
2022-11-15T12:42:58.469Z,4.03
2022-11-15T12:45:36.581Z,4.80
2022-11-15T12:48:18.843Z,3.92
2022-11-15T12:50:51.900Z,3.90
2022-11-15T12:53:28.729Z,4.00
2022-11-15T12:56:14.012Z,3.90
2022-11-15T12:58:55.045Z,3.58
2022-11-15T13:01:35.077Z,3.85
2022-11-15T13:04:20.709Z,3.80
2022-11-15T13:06:53.875Z,3.53
2022-11-15T13:09:33.327Z,4.07
2022-11-15T13:12:02.997Z,3.80
2022-11-15T13:14:44.383Z,3.70
2022-11-15T13:17:38.841Z,3.90
2022-11-15T13:20:18.316Z,3.25
2022-11-15T13:23:03.002Z,3.90
2022-11-15T13:25:57.751Z,3.70
2022-11-15T13:28:27.855Z,4.78
2022-11-15T13:30:57.381Z,3.38
2022-11-15T13:33:36.221Z,3.72
2022-11-15T13:36:25.615Z,4.07
2022-11-15T13:38:58.551Z,4.30
2022-11-15T13:41:28.872Z,3.83
2022-11-15T13:43:57.230Z,5.03
2022-11-15T13:46:29.000Z,4.60
2022-11-15T13:49:08.994Z,4.65
2022-11-15T13:51:39.294Z,6.60
2022-11-15T13:54:24.435Z,3.88
2022-11-15T13:56:56.953Z,4.63
2022-11-15T13:59:23.892Z,4.05
2022-11-15T14:01:52.628Z,4.35
2022-11-15T14:04:23.357Z,4.13
2022-11-15T14:06:55.469Z,3.95
2022-11-15T14:09:49.067Z,4.53
2022-11-15T14:12:35.686Z,4.30
2022-11-15T14:15:33.304Z,5.07
2022-11-15T14:18:01.134Z,4.40
2022-11-15T14:20:37.915Z,4.75
2022-11-15T14:23:28.686Z,5.40
2022-11-15T14:25:59.783Z,4.50
2022-11-15T14:28:26.819Z,4.90
2022-11-15T14:30:56.809Z,4.75
2022-11-15T14:33:35.542Z,5.40
2022-11-15T14:36:07.841Z,5.20
2022-11-15T14:38:35.879Z,4.75
2022-11-15T14:41:03.298Z,5.47
2022-11-15T14:43:30.482Z,4.55
2022-11-15T14:45:57.615Z,4.50
2022-11-15T14:48:24.555Z,4.25
2022-11-15T14:50:51.579Z,4.47
2022-11-15T14:53:19.910Z,5.05
2022-11-15T14:55:46.999Z,4.95
2022-11-15T14:58:13.894Z,5.28
2022-11-15T15:00:42.279Z,5.53
2022-11-15T15:03:09.951Z,8.20
2022-11-15T15:05:42.941Z,5.90
2022-11-15T15:08:11.232Z,6.90
2022-11-15T15:10:42.680Z,5.18
2022-11-15T15:13:29.748Z,4.90
2022-11-15T15:15:56.694Z,4.30
2022-11-15T15:18:23.673Z,3.42
2022-11-15T15:21:03.502Z,3.95
2022-11-15T15:23:32.115Z,5.10
2022-11-15T15:25:59.718Z,5.70
2022-11-15T15:28:32.960Z,7.32
2022-11-15T15:31:01.611Z,7.13
2022-11-15T15:33:28.526Z,9.38
2022-11-15T15:35:55.500Z,6.05
2022-11-15T15:38:22.760Z,6.35
2022-11-15T15:40:51.686Z,9.02
2022-11-15T15:43:18.827Z,11.30
2022-11-15T15:45:46.293Z,7.18
2022-11-15T15:48:18.191Z,5.35
2022-11-15T15:50:46.179Z,4.07
2022-11-15T15:53:14.296Z,3.90
2022-11-15T15:55:41.792Z,5.32
2022-11-15T15:58:09.449Z,4.53
2022-11-15T16:00:37.928Z,3.75
2022-11-15T16:03:05.048Z,5.47
2022-11-15T16:05:31.995Z,4.20
2022-11-15T16:07:59.051Z,4.93
2022-11-15T16:10:32.763Z,4.85
2022-11-15T16:12:59.922Z,4.95
2022-11-15T16:15:29.380Z,5.30
2022-11-15T16:17:58.932Z,5.68
2022-11-15T16:20:46.251Z,6.20
2022-11-15T16:23:15.434Z,4.97
2022-11-15T16:25:45.554Z,5.95
2022-11-15T16:28:26.629Z,5.10
2022-11-15T16:31:08.926Z,5.00
2022-11-15T16:33:36.310Z,5.43
2022-11-15T16:36:05.552Z,5.22
2022-11-15T16:38:33.036Z,5.57
2022-11-15T16:41:00.401Z,6.77
2022-11-15T16:43:27.353Z,5.15
2022-11-15T16:45:55.726Z,6.37
2022-11-15T16:48:29.320Z,6.20
2022-11-15T16:50:58.592Z,6.05
2022-11-15T16:53:27.227Z,5.83
2022-11-15T16:55:55.725Z,5.22
2022-11-15T16:58:23.067Z,5.68
2022-11-15T17:00:54.446Z,5.85
2022-11-15T17:03:22.799Z,5.47
2022-11-15T17:05:50.448Z,5.20
2022-11-15T17:08:17.524Z,5.17
2022-11-15T17:10:44.448Z,4.83
2022-11-15T17:13:13.633Z,4.97
2022-11-15T17:15:40.889Z,5.38
2022-11-15T17:18:09.220Z,6.22
2022-11-15T17:20:36.282Z,4.90
2022-11-15T17:23:03.237Z,5.30
2022-11-15T17:25:30.280Z,5.57
2022-11-15T17:27:57.212Z,5.23
2022-11-15T17:30:24.433Z,5.83
2022-11-15T17:32:51.370Z,5.07
2022-11-15T17:35:18.421Z,5.30
2022-11-15T17:37:45.546Z,5.25
2022-11-15T17:40:12.704Z,5.90
2022-11-15T17:42:42.292Z,5.67
2022-11-15T17:45:11.200Z,6.63
2022-11-15T17:47:38.478Z,5.80
2022-11-15T17:50:05.796Z,5.43
2022-11-15T17:52:32.810Z,6.03
2022-11-15T17:54:59.828Z,6.57
2022-11-15T17:57:26.803Z,5.80
2022-11-15T17:59:53.761Z,7.47
2022-11-15T18:02:20.817Z,5.97
2022-11-15T18:04:47.861Z,6.33
2022-11-15T18:07:14.969Z,6.70
2022-11-15T18:09:44.202Z,6.63
2022-11-15T18:12:12.197Z,6.43
2022-11-15T18:14:39.637Z,6.50
2022-11-15T18:17:06.736Z,6.88
2022-11-15T18:19:33.891Z,6.03
2022-11-15T18:22:01.860Z,6.75
2022-11-15T18:24:36.781Z,6.50
2022-11-15T18:27:05.313Z,6.55
2022-11-15T18:29:34.612Z,6.32
2022-11-15T18:32:05.121Z,6.67
2022-11-15T18:34:33.801Z,5.95
2022-11-15T18:37:02.906Z,6.50
2022-11-15T18:39:30.612Z,7.10
2022-11-15T18:41:58.178Z,6.70
2022-11-15T18:44:25.255Z,6.30
2022-11-15T18:46:52.240Z,6.80
2022-11-15T18:49:20.435Z,6.60
2022-11-15T18:51:47.849Z,6.23
2022-11-15T18:54:16.677Z,6.67
2022-11-15T18:56:45.702Z,6.43
2022-11-15T18:59:13.042Z,7.97
2022-11-15T19:01:42.580Z,7.63
2022-11-15T19:04:15.770Z,6.78
2022-11-15T19:06:44.778Z,7.67
2022-11-15T19:09:15.304Z,7.47
2022-11-15T19:11:43.903Z,7.20
2022-11-15T19:14:13.000Z,7.60
2022-11-15T19:16:44.660Z,7.13
2022-11-15T19:19:17.508Z,6.97
2022-11-15T19:21:44.774Z,7.20
2022-11-15T19:24:12.290Z,7.53
2022-11-15T19:26:39.561Z,7.20
2022-11-15T19:29:10.354Z,6.97
2022-11-15T19:31:38.033Z,8.03
2022-11-15T19:34:06.264Z,8.17
2022-11-15T19:36:37.239Z,6.93
2022-11-15T19:39:08.557Z,7.43
2022-11-15T19:41:38.640Z,8.37
2022-11-15T19:44:06.784Z,7.23
2022-11-15T19:46:34.512Z,7.63
2022-11-15T19:49:01.976Z,7.40
2022-11-15T19:51:30.967Z,6.70
2022-11-15T19:54:06.752Z,8.73
2022-11-15T19:56:34.956Z,7.33
2022-11-15T19:59:03.445Z,7.07
2022-11-15T20:01:32.939Z,7.60
2022-11-15T20:04:00.548Z,6.77
2022-11-15T20:06:33.273Z,6.73
2022-11-15T20:09:00.489Z,9.13
2022-11-15T20:11:28.171Z,7.13
2022-11-15T20:13:59.499Z,7.80
2022-11-15T20:16:26.892Z,6.90
2022-11-15T20:18:54.104Z,6.93
2022-11-15T20:21:22.051Z,6.63
2022-11-15T20:23:51.053Z,6.70
2022-11-15T20:26:19.421Z,7.57
2022-11-15T20:28:46.477Z,6.80
2022-11-15T20:31:13.617Z,6.97
2022-11-15T20:33:40.968Z,6.93
2022-11-15T20:36:11.368Z,8.10
2022-11-15T20:38:38.896Z,7.13
2022-11-15T20:41:06.528Z,6.90
2022-11-15T20:43:33.473Z,8.00
2022-11-15T20:46:00.514Z,7.10
2022-11-15T20:48:27.584Z,7.93
2022-11-15T20:51:11.139Z,7.20
2022-11-15T20:53:38.180Z,7.10
2022-11-15T20:56:13.792Z,6.80
2022-11-15T20:58:42.006Z,6.88
2022-11-15T21:01:11.750Z,7.10
2022-11-15T21:03:38.858Z,7.33
2022-11-15T21:06:06.302Z,6.70
2022-11-15T21:08:53.853Z,6.73
2022-11-15T21:11:39.769Z,7.53
2022-11-15T21:14:09.549Z,6.18
2022-11-15T21:16:37.354Z,7.00
2022-11-15T21:19:05.886Z,6.85
2022-11-15T21:21:32.924Z,7.17
2022-11-15T21:24:00.112Z,6.87
2022-11-15T21:26:27.099Z,6.95
2022-11-15T21:28:54.128Z,7.73
2022-11-15T21:31:22.641Z,7.07
2022-11-15T21:33:49.696Z,7.20
2022-11-15T21:36:16.660Z,7.33
2022-11-15T21:38:43.614Z,6.70
2022-11-15T21:41:10.558Z,7.27
2022-11-15T21:43:37.552Z,6.73
2022-11-15T21:46:06.720Z,6.80
2022-11-15T21:48:35.698Z,6.80
2022-11-15T21:51:07.698Z,8.40
2022-11-15T21:53:35.194Z,7.23
2022-11-15T21:56:03.118Z,7.83
2022-11-15T21:58:31.240Z,7.80
2022-11-15T22:01:20.849Z,7.47
2022-11-15T22:03:47.928Z,6.87
2022-11-15T22:06:18.151Z,7.73
2022-11-15T22:08:46.232Z,7.80
2022-11-15T22:11:14.283Z,8.17
2022-11-15T22:13:41.722Z,7.30
2022-11-15T22:16:09.585Z,8.40
2022-11-15T22:18:37.151Z,8.30
2022-11-15T22:21:13.167Z,8.07
2022-11-15T22:23:40.920Z,8.97
2022-11-15T22:26:10.431Z,7.87
2022-11-15T22:28:37.593Z,8.67
2022-11-15T22:31:04.726Z,8.17
2022-11-15T22:33:33.509Z,8.80
2022-11-15T22:36:01.387Z,7.43
2022-11-15T22:38:29.236Z,8.47
2022-11-15T22:40:56.903Z,7.70
2022-11-15T22:43:25.750Z,7.90
2022-11-15T22:45:54.364Z,8.63
2022-11-15T22:48:23.774Z,8.43
2022-11-15T22:50:50.979Z,7.17
2022-11-15T22:53:18.699Z,7.47
2022-11-15T22:55:51.919Z,7.83
2022-11-15T22:58:19.689Z,8.27
2022-11-15T23:00:50.669Z,7.70
2022-11-15T23:03:18.732Z,7.43
2022-11-15T23:05:46.412Z,8.37
2022-11-15T23:08:13.783Z,7.87
2022-11-15T23:10:59.520Z,8.70
2022-11-15T23:13:28.524Z,8.50
2022-11-15T23:16:21.779Z,8.43
2022-11-15T23:18:50.681Z,9.33
2022-11-15T23:21:42.602Z,8.47
2022-11-15T23:24:11.748Z,8.77
2022-11-15T23:26:39.798Z,8.03
2022-11-15T23:29:08.815Z,9.20
2022-11-15T23:32:01.536Z,8.33
2022-11-15T23:34:33.311Z,8.37
2022-11-15T23:37:00.566Z,8.83
2022-11-15T23:39:27.906Z,9.00
2022-11-15T23:41:54.984Z,8.90
2022-11-15T23:44:22.205Z,9.17
2022-11-15T23:46:49.210Z,9.20
2022-11-15T23:49:16.250Z,9.80
2022-11-15T23:51:43.220Z,9.40
2022-11-15T23:54:10.888Z,9.80
2022-11-15T23:56:38.281Z,9.73
2022-11-15T23:59:05.947Z,10.13
